sensor_id;sensor_type;location;lat;lon;timestamp;pressure;altitude;pressure_sealevel;temperature;humidity
51928;BME280;37953;52.806;18.270;2023-04-27T00:01:37;100648.69;;;7.39;99.92
51928;BME280;37953;52.806;18.270;2023-04-27T00:04:02;100648.66;;;7.37;100.00
51928;BME280;37953;52.806;18.270;2023-04-27T00:06:29;100646.91;;;7.36;100.00
51928;BME280;37953;52.806;18.270;2023-04-27T00:08:55;100654.66;;;7.34;100.00
51928;BME280;37953;52.806;18.270;2023-04-27T00:11:21;100654.63;;;7.33;100.00
51928;BME280;37953;52.806;18.270;2023-04-27T00:13:47;100645.16;;;7.33;100.00
51928;BME280;37953;52.806;18.270;2023-04-27T00:16:13;100642.53;;;7.32;100.00
51928;BME280;37953;52.806;18.270;2023-04-27T00:18:39;100642.53;;;7.30;100.00
51928;BME280;37953;52.806;18.270;2023-04-27T00:21:05;100650.22;;;7.29;100.00
51928;BME280;37953;52.806;18.270;2023-04-27T00:23:31;100651.06;;;7.28;100.00
51928;BME280;37953;52.806;18.270;2023-04-27T00:25:57;100650.97;;;7.23;100.00
51928;BME280;37953;52.806;18.270;2023-04-27T00:28:23;100658.69;;;7.20;100.00
51928;BME280;37953;52.806;18.270;2023-04-27T00:30:49;100649.94;;;7.15;100.00
51928;BME280;37953;52.806;18.270;2023-04-27T00:33:18;100658.59;;;7.17;100.00
51928;BME280;37953;52.806;18.270;2023-04-27T00:35:44;100653.41;;;7.14;100.00
51928;BME280;37953;52.806;18.270;2023-04-27T00:38:10;100658.56;;;7.14;100.00
51928;BME280;37953;52.806;18.270;2023-04-27T00:40:37;100651.63;;;7.11;100.00
51928;BME280;37953;52.806;18.270;2023-04-27T00:43:03;100651.59;;;7.10;100.00
51928;BME280;37953;52.806;18.270;2023-04-27T00:45:29;100646.38;;;7.08;100.00
51928;BME280;37953;52.806;18.270;2023-04-27T00:47:55;100653.28;;;7.08;100.00
51928;BME280;37953;52.806;18.270;2023-04-27T00:50:28;100660.16;;;7.09;100.00
51928;BME280;37953;52.806;18.270;2023-04-27T00:52:55;100663.56;;;7.06;100.00
51928;BME280;37953;52.806;18.270;2023-04-27T00:55:24;100665.28;;;7.06;100.00
51928;BME280;37953;52.806;18.270;2023-04-27T00:57:50;100661.78;;;7.04;100.00
51928;BME280;37953;52.806;18.270;2023-04-27T01:00:16;100666.06;;;7.02;100.00
51928;BME280;37953;52.806;18.270;2023-04-27T01:02:42;100665.19;;;7.01;100.00
51928;BME280;37953;52.806;18.270;2023-04-27T01:05:09;100668.59;;;6.99;100.00
51928;BME280;37953;52.806;18.270;2023-04-27T01:07:38;100671.19;;;6.99;100.00
51928;BME280;37953;52.806;18.270;2023-04-27T01:10:06;100670.22;;;6.95;100.00
51928;BME280;37953;52.806;18.270;2023-04-27T01:12:32;100670.19;;;6.93;100.00
51928;BME280;37953;52.806;18.270;2023-04-27T01:14:58;100670.16;;;6.92;100.00
51928;BME280;37953;52.806;18.270;2023-04-27T01:17:24;100668.38;;;6.89;100.00
51928;BME280;37953;52.806;18.270;2023-04-27T01:19:51;100677.00;;;6.88;100.00
51928;BME280;37953;52.806;18.270;2023-04-27T01:22:20;100675.22;;;6.86;100.00
51928;BME280;37953;52.806;18.270;2023-04-27T01:24:47;100668.34;;;6.86;100.00
51928;BME280;37953;52.806;18.270;2023-04-27T01:27:13;100677.81;;;6.86;100.00
51928;BME280;37953;52.806;18.270;2023-04-27T01:29:39;100663.94;;;6.82;100.00
51928;BME280;37953;52.806;18.270;2023-04-27T01:32:05;100671.72;;;6.84;100.00
51928;BME280;37953;52.806;18.270;2023-04-27T01:34:32;100666.53;;;6.82;100.00
51928;BME280;37953;52.806;18.270;2023-04-27T01:36:57;100678.59;;;6.83;100.00
51928;BME280;37953;52.806;18.270;2023-04-27T01:39:23;100679.44;;;6.82;100.00
51928;BME280;37953;52.806;18.270;2023-04-27T01:41:49;100681.97;;;6.81;100.00
51928;BME280;37953;52.806;18.270;2023-04-27T01:44:15;100672.50;;;6.80;100.00
51928;BME280;37953;52.806;18.270;2023-04-27T01:46:41;100675.09;;;6.80;100.00
51928;BME280;37953;52.806;18.270;2023-04-27T01:49:07;100685.41;;;6.81;100.00
51928;BME280;37953;52.806;18.270;2023-04-27T01:51:33;100676.81;;;6.81;100.00
51928;BME280;37953;52.806;18.270;2023-04-27T01:53:59;100683.69;;;6.80;100.00
51928;BME280;37953;52.806;18.270;2023-04-27T01:56:25;100683.69;;;6.80;100.00
51928;BME280;37953;52.806;18.270;2023-04-27T01:58:52;100685.41;;;6.80;100.00
51928;BME280;37953;52.806;18.270;2023-04-27T02:01:18;100684.50;;;6.79;100.00
51928;BME280;37953;52.806;18.270;2023-04-27T02:03:44;100682.81;;;6.80;100.00
51928;BME280;37953;52.806;18.270;2023-04-27T02:06:10;100688.00;;;6.80;100.00
51928;BME280;37953;52.806;18.270;2023-04-27T02:08:36;100685.41;;;6.80;100.00
51928;BME280;37953;52.806;18.270;2023-04-27T02:11:02;100687.09;;;6.79;100.00
51928;BME280;37953;52.806;18.270;2023-04-27T02:13:28;100687.09;;;6.79;100.00
51928;BME280;37953;52.806;18.270;2023-04-27T02:15:53;100689.69;;;6.79;100.00
51928;BME280;37953;52.806;18.270;2023-04-27T02:18:20;100689.69;;;6.79;100.00
51928;BME280;37953;52.806;18.270;2023-04-27T02:20:46;100694.88;;;6.81;100.00
51928;BME280;37953;52.806;18.270;2023-04-27T02:23:12;100688.81;;;6.79;100.00
51928;BME280;37953;52.806;18.270;2023-04-27T02:25:38;100692.25;;;6.79;100.00
51928;BME280;37953;52.806;18.270;2023-04-27T02:28:07;100693.16;;;6.80;100.00
51928;BME280;37953;52.806;18.270;2023-04-27T02:30:33;100699.22;;;6.82;100.00
51928;BME280;37953;52.806;18.270;2023-04-27T02:32:59;100705.22;;;6.81;100.00
51928;BME280;37953;52.806;18.270;2023-04-27T02:35:25;100702.59;;;6.79;100.00
51928;BME280;37953;52.806;18.270;2023-04-27T02:37:51;100693.97;;;6.79;100.00
51928;BME280;37953;52.806;18.270;2023-04-27T02:40:17;100700.00;;;6.79;100.00
51928;BME280;37953;52.806;18.270;2023-04-27T02:42:43;100694.84;;;6.79;100.00
51928;BME280;37953;52.806;18.270;2023-04-27T02:45:09;100700.00;;;6.78;100.00
51928;BME280;37953;52.806;18.270;2023-04-27T02:47:35;100693.94;;;6.77;100.00
51928;BME280;37953;52.806;18.270;2023-04-27T02:50:01;100705.94;;;6.75;100.00
51928;BME280;37953;52.806;18.270;2023-04-27T02:52:27;100698.19;;;6.73;100.00
51928;BME280;37953;52.806;18.270;2023-04-27T02:54:53;100704.22;;;6.74;100.00
51928;BME280;37953;52.806;18.270;2023-04-27T02:57:19;100705.03;;;6.71;100.00
51928;BME280;37953;52.806;18.270;2023-04-27T03:02:12;100702.41;;;6.70;100.00
51928;BME280;37953;52.806;18.270;2023-04-27T03:04:38;100700.69;;;6.70;100.00
51928;BME280;37953;52.806;18.270;2023-04-27T03:07:04;100706.69;;;6.69;100.00
51928;BME280;37953;52.806;18.270;2023-04-27T03:09:31;100710.09;;;6.68;100.00
51928;BME280;37953;52.806;18.270;2023-04-27T03:11:57;100711.78;;;6.66;100.00
51928;BME280;37953;52.806;18.270;2023-04-27T03:14:23;100710.91;;;6.66;100.00
51928;BME280;37953;52.806;18.270;2023-04-27T03:16:49;100717.78;;;6.65;100.00
51928;BME280;37953;52.806;18.270;2023-04-27T03:19:15;100717.75;;;6.64;100.00
51928;BME280;37953;52.806;18.270;2023-04-27T03:21:41;100728.06;;;6.64;100.00
51928;BME280;37953;52.806;18.270;2023-04-27T03:24:07;100725.44;;;6.62;100.00
51928;BME280;37953;52.806;18.270;2023-04-27T03:26:33;100725.50;;;6.64;100.00
51928;BME280;37953;52.806;18.270;2023-04-27T03:28:59;100726.34;;;6.63;100.00
51928;BME280;37953;52.806;18.270;2023-04-27T03:31:25;100726.34;;;6.63;100.00
51928;BME280;37953;52.806;18.270;2023-04-27T03:33:51;100733.19;;;6.61;100.00
51928;BME280;37953;52.806;18.270;2023-04-27T03:36:17;100739.25;;;6.64;100.00
51928;BME280;37953;52.806;18.270;2023-04-27T03:38:43;100732.41;;;6.65;100.00
51928;BME280;37953;52.806;18.270;2023-04-27T03:41:09;100747.06;;;6.66;100.00
51928;BME280;37953;52.806;18.270;2023-04-27T03:43:35;100747.91;;;6.66;100.00
51928;BME280;37953;52.806;18.270;2023-04-27T03:46:01;100741.88;;;6.66;100.00
51928;BME280;37953;52.806;18.270;2023-04-27T03:48:27;100749.69;;;6.67;100.00
51928;BME280;37953;52.806;18.270;2023-04-27T03:50:53;100747.09;;;6.67;100.00
51928;BME280;37953;52.806;18.270;2023-04-27T03:53:19;100742.75;;;6.65;100.00
51928;BME280;37953;52.806;18.270;2023-04-27T03:55:45;100747.97;;;6.68;100.00
51928;BME280;37953;52.806;18.270;2023-04-27T03:58:18;100749.72;;;6.69;100.00
51928;BME280;37953;52.806;18.270;2023-04-27T04:00:44;100755.75;;;6.69;100.00
51928;BME280;37953;52.806;18.270;2023-04-27T04:03:10;100758.38;;;6.71;100.00
51928;BME280;37953;52.806;18.270;2023-04-27T04:05:36;100756.63;;;6.70;100.00
51928;BME280;37953;52.806;18.270;2023-04-27T04:08:02;100762.69;;;6.72;100.00
51928;BME280;37953;52.806;18.270;2023-04-27T04:10:28;100762.72;;;6.73;100.00
51928;BME280;37953;52.806;18.270;2023-04-27T04:12:54;100767.03;;;6.75;100.00
51928;BME280;37953;52.806;18.270;2023-04-27T04:15:20;100771.38;;;6.76;100.00
51928;BME280;37953;52.806;18.270;2023-04-27T04:17:46;100763.59;;;6.74;100.00
51928;BME280;37953;52.806;18.270;2023-04-27T04:20:13;100773.13;;;6.77;100.00
51928;BME280;37953;52.806;18.270;2023-04-27T04:22:40;100774.88;;;6.78;100.00
51928;BME280;37953;52.806;18.270;2023-04-27T04:25:06;100778.31;;;6.78;100.00
51928;BME280;37953;52.806;18.270;2023-04-27T04:27:32;100774.03;;;6.79;100.00
51928;BME280;37953;52.806;18.270;2023-04-27T04:29:59;100770.69;;;6.83;100.00
51928;BME280;37953;52.806;18.270;2023-04-27T04:32:26;100775.94;;;6.87;100.00
51928;BME280;37953;52.806;18.270;2023-04-27T04:34:56;100784.59;;;6.89;100.00
51928;BME280;37953;52.806;18.270;2023-04-27T04:37:22;100785.50;;;6.91;100.00
51928;BME280;37953;52.806;18.270;2023-04-27T04:39:48;100786.38;;;6.92;100.00
51928;BME280;37953;52.806;18.270;2023-04-27T04:42:14;100789.00;;;6.93;100.00
51928;BME280;37953;52.806;18.270;2023-04-27T04:44:40;100789.88;;;6.94;100.00
51928;BME280;37953;52.806;18.270;2023-04-27T04:47:07;100791.59;;;6.93;100.00
51928;BME280;37953;52.806;18.270;2023-04-27T04:49:34;100791.63;;;6.95;100.00
51928;BME280;37953;52.806;18.270;2023-04-27T04:52:00;100794.25;;;6.97;100.00
51928;BME280;37953;52.806;18.270;2023-04-27T04:54:29;100795.16;;;6.99;100.00
51928;BME280;37953;52.806;18.270;2023-04-27T04:56:55;100794.25;;;6.98;100.00
51928;BME280;37953;52.806;18.270;2023-04-27T04:59:31;100788.31;;;7.01;100.00
51928;BME280;37953;52.806;18.270;2023-04-27T05:01:57;100790.00;;;7.00;100.00
51928;BME280;37953;52.806;18.270;2023-04-27T05:04:23;100793.50;;;7.02;100.00
51928;BME280;37953;52.806;18.270;2023-04-27T05:06:49;100796.13;;;7.04;100.00
51928;BME280;37953;52.806;18.270;2023-04-27T05:09:15;100797.88;;;7.05;100.00
51928;BME280;37953;52.806;18.270;2023-04-27T05:11:41;100797.03;;;7.06;100.00
51928;BME280;37953;52.806;18.270;2023-04-27T05:14:07;100802.25;;;7.07;100.00
51928;BME280;37953;52.806;18.270;2023-04-27T05:16:33;100798.84;;;7.10;100.00
51928;BME280;37953;52.806;18.270;2023-04-27T05:18:59;100801.47;;;7.11;100.00
51928;BME280;37953;52.806;18.270;2023-04-27T05:21:25;100798.94;;;7.14;100.00
51928;BME280;37953;52.806;18.270;2023-04-27T05:23:51;100804.19;;;7.18;100.00
51928;BME280;37953;52.806;18.270;2023-04-27T05:26:17;100808.53;;;7.20;100.00
51928;BME280;37953;52.806;18.270;2023-04-27T05:28:44;100809.44;;;7.22;100.00
51928;BME280;37953;52.806;18.270;2023-04-27T05:31:11;100812.09;;;7.25;100.00
51928;BME280;37953;52.806;18.270;2023-04-27T05:33:37;100819.03;;;7.28;100.00
51928;BME280;37953;52.806;18.270;2023-04-27T05:36:04;100805.31;;;7.30;100.00
51928;BME280;37953;52.806;18.270;2023-04-27T05:38:30;100818.25;;;7.32;100.00
51928;BME280;37953;52.806;18.270;2023-04-27T05:40:58;100811.41;;;7.34;100.00
51928;BME280;37953;52.806;18.270;2023-04-27T05:43:24;100816.66;;;7.37;100.00
51928;BME280;37953;52.806;18.270;2023-04-27T05:45:51;100817.56;;;7.39;100.00
51928;BME280;37953;52.806;18.270;2023-04-27T05:48:18;100815.03;;;7.42;100.00
51928;BME280;37953;52.806;18.270;2023-04-27T05:50:47;100817.66;;;7.44;100.00
51928;BME280;37953;52.806;18.270;2023-04-27T05:53:13;100826.31;;;7.46;100.00
51928;BME280;37953;52.806;18.270;2023-04-27T05:55:39;100822.88;;;7.47;100.00
51928;BME280;37953;52.806;18.270;2023-04-27T05:58:05;100829.88;;;7.51;100.00
51928;BME280;37953;52.806;18.270;2023-04-27T06:00:31;100827.28;;;7.51;100.00
51928;BME280;37953;52.806;18.270;2023-04-27T06:02:57;100826.53;;;7.57;100.00
51928;BME280;37953;52.806;18.270;2023-04-27T06:05:23;100831.81;;;7.61;100.00
51928;BME280;37953;52.806;18.270;2023-04-27T06:07:49;100831.88;;;7.64;100.00
51928;BME280;37953;52.806;18.270;2023-04-27T06:10:15;100831.06;;;7.67;100.00
51928;BME280;37953;52.806;18.270;2023-04-27T06:12:41;100834.56;;;7.69;100.00
51928;BME280;37953;52.806;18.270;2023-04-27T06:15:07;100825.06;;;7.69;100.00
51928;BME280;37953;52.806;18.270;2023-04-27T06:17:35;100835.50;;;7.74;100.00
51928;BME280;37953;52.806;18.270;2023-04-27T06:20:01;100828.66;;;7.76;100.00
51928;BME280;37953;52.806;18.270;2023-04-27T06:22:31;100829.59;;;7.80;100.00
51928;BME280;37953;52.806;18.270;2023-04-27T06:24:57;100839.13;;;7.82;100.00
51928;BME280;37953;52.806;18.270;2023-04-27T06:27:26;100833.13;;;7.85;100.00
51928;BME280;37953;52.806;18.270;2023-04-27T06:29:52;100834.03;;;7.85;100.00
51928;BME280;37953;52.806;18.270;2023-04-27T06:32:18;100832.34;;;7.87;100.00
51928;BME280;37953;52.806;18.270;2023-04-27T06:34:44;100838.38;;;7.89;100.00
51928;BME280;37953;52.806;18.270;2023-04-27T06:37:10;100833.28;;;7.92;100.00
51928;BME280;37953;52.806;18.270;2023-04-27T06:39:36;100841.13;;;7.97;100.00
51928;BME280;37953;52.806;18.270;2023-04-27T06:42:02;100843.81;;;8.00;100.00
51928;BME280;37953;52.806;18.270;2023-04-27T06:44:31;100846.44;;;8.03;100.00
51928;BME280;37953;52.806;18.270;2023-04-27T06:46:57;100841.31;;;8.06;100.00
51928;BME280;37953;52.806;18.270;2023-04-27T06:49:26;100837.94;;;8.09;100.00
51928;BME280;37953;52.806;18.270;2023-04-27T06:51:52;100837.06;;;8.10;99.11
51928;BME280;37953;52.806;18.270;2023-04-27T06:54:18;100835.38;;;8.12;97.93
51928;BME280;37953;52.806;18.270;2023-04-27T06:56:44;100831.94;;;8.11;98.47
51928;BME280;37953;52.806;18.270;2023-04-27T06:59:10;100841.50;;;8.15;100.00
51928;BME280;37953;52.806;18.270;2023-04-27T07:01:36;100835.50;;;8.18;100.00
51928;BME280;37953;52.806;18.270;2023-04-27T07:04:03;100838.13;;;8.20;100.00
51928;BME280;37953;52.806;18.270;2023-04-27T07:06:29;100837.31;;;8.22;97.34
51928;BME280;37953;52.806;18.270;2023-04-27T07:08:59;100836.50;;;8.26;97.81
51928;BME280;37953;52.806;18.270;2023-04-27T07:11:25;100844.31;;;8.29;96.76
51928;BME280;37953;52.806;18.270;2023-04-27T07:13:51;100842.63;;;8.31;95.77
51928;BME280;37953;52.806;18.270;2023-04-27T07:16:18;100846.13;;;8.33;94.22
51928;BME280;37953;52.806;18.270;2023-04-27T07:18:44;100848.75;;;8.35;93.40
51928;BME280;37953;52.806;18.270;2023-04-27T07:21:10;100841.88;;;8.37;93.36
51928;BME280;37953;52.806;18.270;2023-04-27T07:23:40;100847.09;;;8.40;94.28
51928;BME280;37953;52.806;18.270;2023-04-27T07:26:06;100846.31;;;8.41;93.43
51928;BME280;37953;52.806;18.270;2023-04-27T07:28:33;100838.56;;;8.44;94.97
51928;BME280;37953;52.806;18.270;2023-04-27T07:31:04;100840.38;;;8.48;94.54
51928;BME280;37953;52.806;18.270;2023-04-27T07:33:31;100838.72;;;8.52;94.31
51928;BME280;37953;52.806;18.270;2023-04-27T07:36:03;100843.09;;;8.56;94.85
51928;BME280;37953;52.806;18.270;2023-04-27T07:38:30;100840.56;;;8.59;96.02
51928;BME280;37953;52.806;18.270;2023-04-27T07:41:01;100838.91;;;8.63;95.65
51928;BME280;37953;52.806;18.270;2023-04-27T07:43:30;100838.06;;;8.65;95.93
51928;BME280;37953;52.806;18.270;2023-04-27T07:46:02;100839.03;;;8.70;96.75
51928;BME280;37953;52.806;18.270;2023-04-27T07:48:28;100832.16;;;8.74;94.66
51928;BME280;37953;52.806;18.270;2023-04-27T07:50:55;100832.22;;;8.77;94.08
51928;BME280;37953;52.806;18.270;2023-04-27T07:53:21;100825.34;;;8.79;94.27
51928;BME280;37953;52.806;18.270;2023-04-27T07:55:47;100834.88;;;8.82;93.67
51928;BME280;37953;52.806;18.270;2023-04-27T07:58:13;100826.31;;;8.86;93.34
51928;BME280;37953;52.806;18.270;2023-04-27T08:00:39;100826.34;;;8.89;94.29
51928;BME280;37953;52.806;18.270;2023-04-27T08:03:05;100835.91;;;8.91;92.84
51928;BME280;37953;52.806;18.270;2023-04-27T08:05:32;100837.66;;;8.94;91.13
51928;BME280;37953;52.806;18.270;2023-04-27T08:07:58;100829.94;;;8.95;90.80
51928;BME280;37953;52.806;18.270;2023-04-27T08:10:24;100838.59;;;8.99;89.64
51928;BME280;37953;52.806;18.270;2023-04-27T08:12:50;100834.38;;;9.04;90.20
51928;BME280;37953;52.806;18.270;2023-04-27T08:15:16;100830.09;;;9.08;90.67
51928;BME280;37953;52.806;18.270;2023-04-27T08:17:42;100836.22;;;9.13;89.06
51928;BME280;37953;52.806;18.270;2023-04-27T08:20:09;100831.91;;;9.13;87.43
51928;BME280;37953;52.806;18.270;2023-04-27T08:22:39;100831.97;;;9.16;88.15
51928;BME280;37953;52.806;18.270;2023-04-27T08:25:06;100829.44;;;9.21;89.01
51928;BME280;37953;52.806;18.270;2023-04-27T08:27:37;100829.47;;;9.24;88.07
51928;BME280;37953;52.806;18.270;2023-04-27T08:30:03;100834.72;;;9.27;86.45
51928;BME280;37953;52.806;18.270;2023-04-27T08:32:42;100836.50;;;9.31;85.06
51928;BME280;37953;52.806;18.270;2023-04-27T08:35:08;100833.91;;;9.31;85.13
51928;BME280;37953;52.806;18.270;2023-04-27T08:37:35;100838.19;;;9.31;84.33
51928;BME280;37953;52.806;18.270;2023-04-27T08:40:03;100838.19;;;9.31;85.18
51928;BME280;37953;52.806;18.270;2023-04-27T08:42:30;100833.00;;;9.31;84.56
51928;BME280;37953;52.806;18.270;2023-04-27T08:44:56;100839.91;;;9.29;82.50
51928;BME280;37953;52.806;18.270;2023-04-27T08:47:22;100833.81;;;9.27;80.37
51928;BME280;37953;52.806;18.270;2023-04-27T08:49:48;100832.13;;;9.29;81.24
51928;BME280;37953;52.806;18.270;2023-04-27T08:52:15;100837.31;;;9.29;81.59
51928;BME280;37953;52.806;18.270;2023-04-27T08:54:41;100835.59;;;9.29;82.63
51928;BME280;37953;52.806;18.270;2023-04-27T08:57:12;100835.59;;;9.29;83.75
51928;BME280;37953;52.806;18.270;2023-04-27T08:59:39;100831.28;;;9.30;82.42
51928;BME280;37953;52.806;18.270;2023-04-27T09:02:17;100839.91;;;9.30;82.27
51928;BME280;37953;52.806;18.270;2023-04-27T09:04:43;100838.19;;;9.31;81.22
51928;BME280;37953;52.806;18.270;2023-04-27T09:07:17;100827.03;;;9.33;82.76
51928;BME280;37953;52.806;18.270;2023-04-27T09:09:44;100827.00;;;9.32;82.37
51928;BME280;37953;52.806;18.270;2023-04-27T09:12:17;100834.81;;;9.36;80.75
51928;BME280;37953;52.806;18.270;2023-04-27T09:15:03;100841.75;;;9.36;79.32
51928;BME280;37953;52.806;18.270;2023-04-27T09:17:31;100835.63;;;9.32;79.66
51928;BME280;37953;52.806;18.270;2023-04-27T09:20:10;100838.22;;;9.32;78.07
51928;BME280;37953;52.806;18.270;2023-04-27T09:22:50;100834.75;;;9.30;76.29
51928;BME280;37953;52.806;18.270;2023-04-27T09:25:30;100833.06;;;9.34;77.88
51928;BME280;37953;52.806;18.270;2023-04-27T09:27:59;100837.41;;;9.36;78.13
51928;BME280;37953;52.806;18.270;2023-04-27T09:30:30;100833.16;;;9.42;79.90
51928;BME280;37953;52.806;18.270;2023-04-27T09:32:59;100827.16;;;9.46;77.86
51928;BME280;37953;52.806;18.270;2023-04-27T09:35:28;100827.19;;;9.47;76.78
51928;BME280;37953;52.806;18.270;2023-04-27T09:37:55;100832.38;;;9.47;75.39
51928;BME280;37953;52.806;18.270;2023-04-27T09:40:22;100824.66;;;9.52;76.40
51928;BME280;37953;52.806;18.270;2023-04-27T09:42:54;100825.56;;;9.55;75.44
51928;BME280;37953;52.806;18.270;2023-04-27T09:45:23;100833.34;;;9.55;72.84
51928;BME280;37953;52.806;18.270;2023-04-27T09:47:49;100827.25;;;9.53;71.81
51928;BME280;37953;52.806;18.270;2023-04-27T09:50:15;100833.28;;;9.52;72.72
51928;BME280;37953;52.806;18.270;2023-04-27T09:52:42;100839.34;;;9.51;73.11
51928;BME280;37953;52.806;18.270;2023-04-27T09:55:22;100837.59;;;9.49;69.48
51928;BME280;37953;52.806;18.270;2023-04-27T10:09:03;100841.97;;;9.53;71.80
51928;BME280;37953;52.806;18.270;2023-04-27T10:11:38;100853.19;;;9.53;70.48
51928;BME280;37953;52.806;18.270;2023-04-27T10:14:14;100845.41;;;9.52;71.05
51928;BME280;37953;52.806;18.270;2023-04-27T10:16:45;100851.44;;;9.52;70.86
51928;BME280;37953;52.806;18.270;2023-04-27T10:19:12;100851.44;;;9.52;70.69
51928;BME280;37953;52.806;18.270;2023-04-27T10:22:00;100856.72;;;9.57;72.49
51928;BME280;37953;52.806;18.270;2023-04-27T10:24:41;100851.53;;;9.58;72.23
51928;BME280;37953;52.806;18.270;2023-04-27T10:27:10;100849.81;;;9.61;71.22
51928;BME280;37953;52.806;18.270;2023-04-27T10:29:43;100856.78;;;9.65;73.52
51928;BME280;37953;52.806;18.270;2023-04-27T10:32:29;100847.38;;;9.71;73.90
51928;BME280;37953;52.806;18.270;2023-04-27T10:35:03;100848.25;;;9.72;73.28
51928;BME280;37953;52.806;18.270;2023-04-27T10:37:39;100859.50;;;9.72;73.80
51928;BME280;37953;52.806;18.270;2023-04-27T10:40:10;100852.56;;;9.71;75.22
51928;BME280;37953;52.806;18.270;2023-04-27T10:42:40;100854.31;;;9.72;74.74
51928;BME280;37953;52.806;18.270;2023-04-27T10:45:07;100851.75;;;9.74;75.63
51928;BME280;37953;52.806;18.270;2023-04-27T10:47:43;100837.13;;;9.84;79.96
51928;BME280;37953;52.806;18.270;2023-04-27T10:50:11;100844.16;;;9.91;75.95
51928;BME280;37953;52.806;18.270;2023-04-27T10:52:42;100834.75;;;10.02;76.59
51928;BME280;37953;52.806;18.270;2023-04-27T10:55:15;100840.09;;;10.14;76.26
51928;BME280;37953;52.806;18.270;2023-04-27T10:57:49;100840.19;;;10.25;74.84
51928;BME280;37953;52.806;18.270;2023-04-27T11:00:31;100853.25;;;10.30;70.41
51928;BME280;37953;52.806;18.270;2023-04-27T11:03:18;100855.00;;;10.31;67.72
51928;BME280;37953;52.806;18.270;2023-04-27T11:05:47;100849.72;;;10.28;66.59
51928;BME280;37953;52.806;18.270;2023-04-27T11:08:17;100849.72;;;10.25;65.80
51928;BME280;37953;52.806;18.270;2023-04-27T11:10:46;100849.72;;;10.25;65.82
51928;BME280;37953;52.806;18.270;2023-04-27T11:15:55;100845.38;;;10.25;63.17
51928;BME280;37953;52.806;18.270;2023-04-27T11:18:26;100847.19;;;10.29;65.05
51928;BME280;37953;52.806;18.270;2023-04-27T11:21:15;100852.47;;;10.38;65.52
51928;BME280;37953;52.806;18.270;2023-04-27T11:23:49;100849.91;;;10.42;63.36
51928;BME280;37953;52.806;18.270;2023-04-27T11:26:20;100853.38;;;10.45;63.26
51928;BME280;37953;52.806;18.270;2023-04-27T11:28:59;100864.66;;;10.47;63.74
51928;BME280;37953;52.806;18.270;2023-04-27T11:31:27;100856.88;;;10.46;63.80
51928;BME280;37953;52.806;18.270;2023-04-27T11:33:53;100854.25;;;10.44;63.79
51928;BME280;37953;52.806;18.270;2023-04-27T11:36:22;100858.56;;;10.42;64.39
51928;BME280;37953;52.806;18.270;2023-04-27T11:38:56;100867.22;;;10.43;64.88
51928;BME280;37953;52.806;18.270;2023-04-27T11:41:32;100869.81;;;10.43;64.23
51928;BME280;37953;52.806;18.270;2023-04-27T11:44:06;100874.13;;;10.41;63.85
51928;BME280;37953;52.806;18.270;2023-04-27T11:46:34;100868.06;;;10.38;62.36
51928;BME280;37953;52.806;18.270;2023-04-27T11:49:02;100867.19;;;10.38;63.25
51928;BME280;37953;52.806;18.270;2023-04-27T11:51:30;100866.31;;;10.39;64.74
51928;BME280;37953;52.806;18.270;2023-04-27T11:54:15;100876.69;;;10.39;63.33
51928;BME280;37953;52.806;18.270;2023-04-27T11:56:42;100871.50;;;10.36;64.49
51928;BME280;37953;52.806;18.270;2023-04-27T11:59:21;100868.91;;;10.39;65.47
51928;BME280;37953;52.806;18.270;2023-04-27T12:01:52;100860.22;;;10.37;64.86
51928;BME280;37953;52.806;18.270;2023-04-27T12:04:18;100868.91;;;10.39;64.74
51928;BME280;37953;52.806;18.270;2023-04-27T12:06:44;100857.69;;;10.40;63.69
51928;BME280;37953;52.806;18.270;2023-04-27T12:09:10;100863.75;;;10.42;61.86
51928;BME280;37953;52.806;18.270;2023-04-27T12:11:37;100857.69;;;10.43;60.78
51928;BME280;37953;52.806;18.270;2023-04-27T12:14:03;100870.72;;;10.46;62.07
51928;BME280;37953;52.806;18.270;2023-04-27T12:16:29;100867.31;;;10.53;63.76
51928;BME280;37953;52.806;18.270;2023-04-27T12:18:55;100854.44;;;10.64;64.55
51928;BME280;37953;52.806;18.270;2023-04-27T12:21:21;100861.44;;;10.73;65.40
51928;BME280;37953;52.806;18.270;2023-04-27T12:23:47;100861.47;;;10.76;63.96
51928;BME280;37953;52.806;18.270;2023-04-27T12:26:13;100868.41;;;10.78;63.94
51928;BME280;37953;52.806;18.270;2023-04-27T12:28:39;100871.00;;;10.78;63.44
51928;BME280;37953;52.806;18.270;2023-04-27T12:31:05;100871.88;;;10.77;63.17
51928;BME280;37953;52.806;18.270;2023-04-27T12:33:32;100870.16;;;10.78;62.65
51928;BME280;37953;52.806;18.270;2023-04-27T12:35:58;100866.69;;;10.79;61.83
51928;BME280;37953;52.806;18.270;2023-04-27T12:38:25;100873.63;;;10.78;59.51
51928;BME280;37953;52.806;18.270;2023-04-27T12:40:51;100876.22;;;10.80;58.55
51928;BME280;37953;52.806;18.270;2023-04-27T12:43:17;100872.75;;;10.78;57.55
51928;BME280;37953;52.806;18.270;2023-04-27T12:45:43;100884.00;;;10.75;56.18
51928;BME280;37953;52.806;18.270;2023-04-27T12:48:09;100876.19;;;10.74;56.37
51928;BME280;37953;52.806;18.270;2023-04-27T12:50:38;100881.34;;;10.72;57.44
51928;BME280;37953;52.806;18.270;2023-04-27T12:53:04;100884.81;;;10.71;58.16
51928;BME280;37953;52.806;18.270;2023-04-27T12:55:30;100897.78;;;10.70;58.21
51928;BME280;37953;52.806;18.270;2023-04-27T12:57:55;100889.09;;;10.66;58.15
51928;BME280;37953;52.806;18.270;2023-04-27T13:00:23;100884.75;;;10.64;59.05
51928;BME280;37953;52.806;18.270;2023-04-27T13:02:50;100882.13;;;10.62;60.38